createdAt,value
2022-09-12T00:01:42.280Z,2.15
2022-09-12T00:04:44.617Z,2.15
2022-09-12T00:07:46.757Z,2.35
2022-09-12T00:10:49.182Z,2.55
2022-09-12T00:13:52.359Z,2.60
2022-09-12T00:16:59.251Z,2.78
2022-09-12T00:20:02.043Z,2.55
2022-09-12T00:23:04.603Z,2.97
2022-09-12T00:26:07.912Z,2.72
2022-09-12T00:29:16.773Z,2.95
2022-09-12T00:32:19.018Z,2.70
2022-09-12T00:35:21.391Z,2.35
2022-09-12T00:38:23.462Z,2.50
2022-09-12T00:41:34.879Z,2.80
2022-09-12T00:44:36.923Z,2.92
2022-09-12T00:47:39.311Z,2.62
2022-09-12T00:50:41.449Z,2.60
2022-09-12T00:53:46.152Z,2.70
2022-09-12T00:56:51.202Z,2.78
2022-09-12T01:00:08.708Z,2.60
2022-09-12T01:03:17.709Z,2.45
2022-09-12T01:06:28.729Z,2.42
2022-09-12T01:09:31.215Z,2.40
2022-09-12T01:12:34.765Z,2.50
2022-09-12T01:15:38.900Z,2.35
2022-09-12T01:19:20.163Z,2.25
2022-09-12T01:26:00.408Z,2.30
2022-09-12T01:29:11.203Z,1.87
2022-09-12T01:32:19.269Z,2.17
2022-09-12T01:35:32.491Z,2.40
2022-09-12T01:38:42.590Z,1.98
2022-09-12T01:41:54.511Z,2.10
2022-09-12T01:45:23.106Z,1.80
2022-09-12T01:48:33.069Z,2.10
2022-09-12T01:51:48.912Z,2.20
2022-09-12T01:55:09.950Z,1.95
2022-09-12T01:58:18.963Z,2.10
2022-09-12T02:01:27.428Z,2.37
2022-09-12T02:04:34.769Z,2.50
2022-09-12T02:07:43.279Z,2.62
2022-09-12T02:10:53.698Z,2.80
2022-09-12T02:14:06.616Z,3.05
2022-09-12T02:17:22.325Z,3.00
2022-09-12T02:20:47.500Z,2.97
2022-09-12T02:23:57.270Z,3.35
2022-09-12T02:27:09.993Z,3.10
2022-09-12T02:30:16.436Z,3.20
2022-09-12T02:33:30.924Z,2.70
2022-09-12T02:36:40.054Z,3.75
2022-09-12T02:39:45.330Z,3.65
2022-09-12T02:42:48.025Z,3.95
2022-09-12T02:45:50.337Z,4.80
2022-09-12T02:48:54.304Z,4.80
2022-09-12T02:51:56.506Z,4.25
2022-09-12T02:54:59.840Z,4.37
2022-09-12T02:58:05.163Z,4.05
2022-09-12T03:01:14.856Z,4.47
2022-09-12T03:04:55.723Z,3.85
2022-09-12T03:08:20.286Z,4.12
2022-09-12T03:11:42.231Z,3.90
2022-09-12T03:15:01.508Z,3.50
2022-09-12T03:18:20.898Z,3.42
2022-09-12T03:21:33.486Z,3.65
2022-09-12T03:24:40.939Z,3.37
2022-09-12T03:27:53.032Z,3.92
2022-09-12T03:30:56.503Z,3.80
2022-09-12T03:34:02.013Z,3.75
2022-09-12T03:37:04.170Z,3.70
2022-09-12T03:40:08.075Z,3.45
2022-09-12T03:43:11.200Z,3.67
2022-09-12T03:46:13.988Z,3.97
2022-09-12T03:49:16.553Z,3.90
2022-09-12T03:52:19.331Z,4.40
2022-09-12T03:55:21.389Z,4.47
2022-09-12T03:58:24.193Z,4.05
2022-09-12T04:01:26.304Z,4.45
2022-09-12T04:04:28.659Z,4.20
2022-09-12T04:07:30.808Z,3.90
2022-09-12T04:10:33.374Z,3.50
2022-09-12T04:13:36.527Z,3.53
2022-09-12T04:16:38.874Z,3.75
2022-09-12T04:19:40.925Z,3.78
2022-09-12T04:22:43.272Z,3.42
2022-09-12T04:25:52.949Z,3.22
2022-09-12T04:28:57.525Z,3.30
2022-09-12T04:31:59.575Z,2.97
2022-09-12T04:35:02.207Z,3.15
2022-09-12T04:38:04.254Z,3.58
2022-09-12T04:41:20.715Z,3.67
2022-09-12T04:44:22.837Z,3.30
2022-09-12T04:47:25.199Z,3.22
2022-09-12T04:50:27.742Z,3.72
2022-09-12T04:53:30.173Z,3.75
2022-09-12T04:56:34.362Z,4.07
2022-09-12T04:59:36.697Z,3.85
2022-09-12T05:02:39.583Z,3.62
2022-09-12T05:05:41.974Z,4.10
2022-09-12T05:08:44.140Z,4.18
2022-09-12T05:12:03.802Z,3.58
2022-09-12T05:15:07.299Z,3.80
2022-09-12T05:18:09.627Z,3.42
2022-09-12T05:21:15.829Z,3.17
2022-09-12T05:24:18.352Z,3.75
2022-09-12T05:27:20.526Z,3.95
2022-09-12T05:30:22.904Z,3.30
2022-09-12T05:33:25.306Z,3.35
2022-09-12T05:36:31.901Z,3.55
2022-09-12T05:39:33.980Z,3.35
2022-09-12T05:42:36.792Z,3.47
2022-09-12T05:45:39.352Z,3.55
2022-09-12T05:48:43.641Z,3.40
2022-09-12T05:51:46.119Z,4.07
2022-09-12T05:54:48.745Z,3.15
2022-09-12T05:57:51.098Z,3.65
2022-09-12T06:00:53.459Z,3.47
2022-09-12T06:03:57.704Z,3.85
2022-09-12T06:07:00.284Z,4.07
2022-09-12T06:10:05.318Z,4.22
2022-09-12T06:13:08.637Z,3.55
2022-09-12T06:16:14.557Z,3.58
2022-09-12T06:19:21.542Z,3.75
2022-09-12T06:22:23.911Z,3.47
2022-09-12T06:25:26.393Z,3.70
2022-09-12T06:28:29.022Z,3.97
2022-09-12T06:31:36.645Z,4.20
2022-09-12T06:34:39.310Z,3.85
2022-09-12T06:37:44.383Z,4.28
2022-09-12T06:40:47.058Z,4.07
2022-09-12T06:43:49.107Z,4.00
2022-09-12T06:46:54.212Z,4.00
2022-09-12T06:49:56.334Z,3.85
2022-09-12T06:52:58.652Z,3.90
2022-09-12T06:56:03.875Z,4.00
2022-09-12T06:59:06.751Z,4.15
2022-09-12T07:02:09.974Z,4.05
2022-09-12T07:05:12.967Z,4.82
2022-09-12T07:08:15.063Z,4.18
2022-09-12T07:11:23.780Z,4.72
2022-09-12T07:14:26.066Z,4.87
2022-09-12T07:17:28.847Z,5.07
2022-09-12T07:20:32.887Z,4.85
2022-09-12T07:23:35.219Z,4.25
2022-09-12T07:26:38.811Z,4.18
2022-09-12T07:29:41.297Z,3.78
2022-09-12T07:32:43.391Z,3.45
2022-09-12T07:35:45.708Z,3.47
2022-09-12T07:38:48.749Z,3.92
2022-09-12T07:41:52.042Z,3.40
2022-09-12T07:44:54.136Z,3.58
2022-09-12T07:47:56.713Z,3.30
2022-09-12T07:51:04.329Z,2.45
2022-09-12T07:54:09.890Z,3.60
2022-09-12T07:57:11.999Z,2.62
2022-09-12T08:00:16.045Z,2.90
2022-09-12T08:03:19.570Z,2.70
2022-09-12T08:06:25.939Z,3.00
2022-09-12T08:09:28.276Z,3.00
2022-09-12T08:12:32.235Z,2.80
2022-09-12T08:15:34.767Z,2.62
2022-09-12T08:18:37.120Z,2.95
2022-09-12T08:21:39.599Z,2.70
2022-09-12T08:24:41.892Z,2.90
2022-09-12T08:27:44.286Z,2.53
2022-09-12T08:30:46.598Z,2.90
2022-09-12T08:33:49.267Z,3.37
2022-09-12T08:36:54.163Z,2.90
2022-09-12T08:39:56.977Z,3.00
2022-09-12T08:43:11.626Z,3.00
2022-09-12T08:46:23.722Z,3.05
2022-09-12T08:49:33.775Z,3.20
2022-09-12T08:56:00.586Z,2.78
2022-09-12T08:59:03.305Z,2.78
2022-09-12T09:02:32.944Z,2.62
2022-09-12T09:06:03.058Z,3.17
2022-09-12T09:09:11.942Z,3.03
2022-09-12T09:12:29.051Z,3.30
2022-09-12T09:15:36.203Z,2.58
2022-09-12T09:18:40.736Z,2.50
2022-09-12T09:22:04.351Z,2.55
2022-09-12T09:25:19.707Z,2.53
2022-09-12T09:28:49.800Z,2.15
2022-09-12T09:31:55.924Z,2.37
2022-09-12T09:34:58.274Z,2.87
2022-09-12T09:38:39.398Z,2.20
2022-09-12T09:41:47.309Z,2.47
2022-09-12T09:44:53.468Z,2.20
2022-09-12T09:48:06.171Z,2.50
2022-09-12T09:51:09.452Z,2.67
2022-09-12T09:54:23.276Z,2.20
2022-09-12T09:57:34.730Z,2.72
2022-09-12T10:00:38.543Z,2.33
2022-09-12T10:03:48.685Z,3.00
2022-09-12T10:06:56.943Z,3.00
2022-09-12T10:10:07.677Z,2.87
2022-09-12T10:13:24.623Z,2.67
2022-09-12T10:16:32.755Z,3.12
2022-09-12T10:19:37.532Z,2.90
2022-09-12T10:22:39.957Z,2.85
2022-09-12T10:25:47.729Z,2.92
2022-09-12T10:28:55.956Z,2.90
2022-09-12T10:32:02.090Z,2.80
2022-09-12T10:35:09.133Z,2.62
2022-09-12T10:38:22.747Z,2.53
2022-09-12T10:41:25.421Z,2.55
2022-09-12T10:44:34.161Z,3.10
2022-09-12T10:47:37.927Z,3.00
2022-09-12T10:50:41.951Z,2.62
2022-09-12T10:53:46.732Z,2.60
2022-09-12T10:57:07.744Z,2.50
2022-09-12T11:00:17.632Z,3.05
2022-09-12T11:03:43.795Z,2.90
2022-09-12T11:07:13.679Z,2.50
2022-09-12T11:10:46.293Z,2.60
2022-09-12T11:13:58.262Z,2.45
2022-09-12T11:17:08.867Z,2.05
2022-09-12T11:20:40.922Z,2.72
2022-09-12T11:24:01.494Z,2.05
2022-09-12T11:27:26.711Z,2.22
2022-09-12T11:30:37.213Z,2.05
2022-09-12T11:33:45.684Z,2.10
2022-09-12T11:36:50.675Z,2.30
2022-09-12T11:39:57.796Z,2.03
2022-09-12T11:43:06.593Z,2.40
2022-09-12T11:46:58.579Z,2.90
2022-09-12T11:50:05.477Z,2.90
2022-09-12T11:53:19.341Z,3.30
2022-09-12T11:56:21.463Z,3.00
2022-09-12T11:59:42.764Z,3.12
2022-09-12T12:03:17.361Z,3.37
2022-09-12T12:06:33.491Z,3.30
2022-09-12T12:09:36.501Z,2.90
2022-09-12T12:12:39.037Z,3.20
2022-09-12T12:15:49.822Z,3.15
2022-09-12T12:18:58.093Z,2.87
2022-09-12T12:22:12.434Z,3.30
2022-09-12T12:25:18.361Z,2.80
2022-09-12T12:28:43.126Z,3.30
2022-09-12T12:32:03.586Z,3.37
2022-09-12T12:35:46.281Z,3.22
2022-09-12T12:38:48.620Z,3.00
2022-09-12T12:41:50.699Z,3.05
2022-09-12T12:44:53.226Z,2.40
2022-09-12T12:47:59.853Z,3.15
2022-09-12T12:51:39.824Z,2.47
2022-09-12T12:54:41.852Z,2.03
2022-09-12T12:57:50.893Z,2.08
2022-09-12T13:01:16.512Z,1.87
2022-09-12T13:04:22.300Z,2.30
2022-09-12T13:07:29.056Z,1.83
2022-09-12T13:10:31.815Z,2.00
2022-09-12T13:13:41.767Z,2.33
2022-09-12T13:16:56.424Z,2.45
2022-09-12T13:20:30.100Z,3.08
2022-09-12T13:23:32.819Z,2.25
2022-09-12T13:26:42.015Z,2.40
2022-09-12T13:29:44.364Z,2.55
2022-09-12T13:32:46.450Z,2.60
2022-09-12T13:36:06.405Z,2.28
2022-09-12T13:39:28.828Z,2.67
2022-09-12T13:42:39.343Z,2.45
2022-09-12T13:45:43.571Z,2.35
2022-09-12T13:48:46.550Z,2.10
2022-09-12T13:52:18.419Z,2.03
2022-09-12T13:55:41.668Z,2.00
2022-09-12T13:58:56.794Z,2.17
2022-09-12T14:01:59.208Z,3.05
2022-09-12T14:05:11.795Z,1.90
2022-09-12T14:08:15.283Z,2.55
2022-09-12T14:11:25.115Z,1.67
2022-09-12T14:14:36.528Z,1.70
2022-09-12T14:17:39.610Z,1.83
2022-09-12T14:20:42.697Z,1.80
2022-09-12T14:23:48.077Z,1.85
2022-09-12T14:26:56.624Z,1.90
2022-09-12T14:30:03.794Z,1.83
2022-09-12T14:33:05.831Z,1.80
2022-09-12T14:36:19.393Z,1.90
2022-09-12T14:39:38.165Z,1.87
2022-09-12T14:42:42.458Z,1.60
2022-09-12T14:45:51.935Z,1.80
2022-09-12T14:49:08.413Z,1.40
2022-09-12T14:52:33.085Z,1.80
2022-09-12T14:55:43.399Z,1.30
2022-09-12T14:58:45.493Z,1.20
2022-09-12T15:01:47.955Z,1.62
2022-09-12T15:04:53.116Z,1.27
2022-09-12T15:08:02.574Z,1.37
2022-09-12T15:11:06.953Z,1.45
2022-09-12T15:14:13.597Z,1.20
2022-09-12T15:17:15.678Z,1.42
2022-09-12T15:20:17.984Z,1.20
2022-09-12T15:23:33.093Z,1.42
2022-09-12T15:26:35.605Z,1.33
2022-09-12T15:29:38.525Z,1.20
2022-09-12T15:32:43.362Z,1.30
2022-09-12T15:35:46.035Z,1.40
2022-09-12T15:38:49.222Z,0.88
2022-09-12T15:41:51.551Z,1.20
2022-09-12T15:44:53.875Z,1.15
2022-09-12T15:47:56.715Z,1.10
2022-09-12T15:51:01.627Z,1.58
2022-09-12T15:54:04.886Z,1.10
2022-09-12T15:57:07.936Z,1.20
2022-09-12T16:00:10.655Z,1.27
2022-09-12T16:03:25.250Z,1.70
2022-09-12T16:06:33.560Z,1.20
2022-09-12T16:09:38.421Z,1.35
2022-09-12T16:12:40.847Z,1.05
2022-09-12T16:15:42.982Z,1.12
2022-09-12T16:18:45.445Z,1.00
2022-09-12T16:21:47.955Z,1.02
2022-09-12T16:24:50.277Z,1.40
2022-09-12T16:27:52.431Z,1.70
2022-09-12T16:31:02.453Z,1.27
2022-09-12T16:34:04.610Z,1.30
2022-09-12T16:37:06.928Z,1.40
2022-09-12T16:40:09.700Z,1.40
2022-09-12T16:43:12.114Z,1.30
2022-09-12T16:46:15.939Z,1.20
2022-09-12T16:49:18.366Z,1.23
2022-09-12T16:52:20.597Z,1.55
2022-09-12T16:55:22.941Z,1.30
2022-09-12T16:58:25.446Z,1.40
2022-09-12T17:01:27.913Z,1.30
2022-09-12T17:04:30.059Z,1.55
2022-09-12T17:07:34.120Z,1.77
2022-09-12T17:10:41.102Z,1.60
2022-09-12T17:14:03.690Z,1.65
2022-09-12T17:17:07.222Z,1.75
2022-09-12T17:20:09.597Z,1.23
2022-09-12T17:23:11.685Z,1.40
2022-09-12T17:26:14.946Z,1.37
2022-09-12T17:29:17.988Z,1.40
2022-09-12T17:32:20.326Z,1.40
2022-09-12T17:35:22.366Z,1.70
2022-09-12T17:38:25.453Z,1.33
2022-09-12T17:41:29.453Z,1.23
2022-09-12T17:44:31.884Z,1.23
2022-09-12T17:47:34.003Z,1.33
2022-09-12T17:50:39.522Z,0.90
2022-09-12T17:53:42.557Z,1.40
2022-09-12T17:56:46.725Z,1.20
2022-09-12T17:59:48.799Z,1.48
2022-09-12T18:02:51.155Z,1.25
2022-09-12T18:05:55.810Z,1.20
2022-09-12T18:09:03.085Z,1.10
2022-09-12T18:12:05.972Z,1.35
2022-09-12T18:15:08.694Z,1.10
2022-09-12T18:18:11.072Z,1.50
2022-09-12T18:21:13.438Z,1.20
2022-09-12T18:24:15.951Z,1.37
2022-09-12T18:27:18.031Z,1.50
2022-09-12T18:30:22.893Z,1.80
2022-09-12T18:33:25.333Z,1.90
2022-09-12T18:36:29.134Z,2.08
2022-09-12T18:39:31.232Z,1.70
2022-09-12T18:42:33.571Z,1.62
2022-09-12T18:45:35.719Z,2.00
2022-09-12T18:48:38.541Z,1.62
2022-09-12T18:51:41.775Z,1.48
2022-09-12T18:54:44.279Z,1.50
2022-09-12T18:57:46.878Z,1.80
2022-09-12T19:00:50.059Z,1.60
2022-09-12T19:03:53.743Z,1.70
2022-09-12T19:06:56.075Z,2.05
2022-09-12T19:09:58.207Z,1.40
2022-09-12T19:13:01.730Z,1.62
2022-09-12T19:16:09.100Z,2.10
2022-09-12T19:19:11.576Z,1.70
2022-09-12T19:22:13.658Z,1.67
2022-09-12T19:25:16.048Z,1.77
2022-09-12T19:28:18.136Z,1.77
2022-09-12T19:31:21.761Z,1.65
2022-09-12T19:34:23.900Z,1.80
2022-09-12T19:37:26.287Z,1.87
2022-09-12T19:40:28.414Z,1.52
2022-09-12T19:43:32.069Z,1.90
2022-09-12T19:46:34.347Z,1.70
2022-09-12T19:49:36.747Z,1.90
2022-09-12T19:52:38.828Z,2.20
2022-09-12T19:55:41.278Z,2.08
2022-09-12T19:58:46.073Z,1.77
2022-09-12T20:01:48.563Z,1.87
2022-09-12T20:04:51.443Z,1.75
2022-09-12T20:07:53.934Z,1.80
2022-09-12T20:10:57.200Z,1.62
2022-09-12T20:13:59.539Z,1.80
2022-09-12T20:17:02.007Z,1.77
2022-09-12T20:20:06.816Z,1.80
2022-09-12T20:23:09.275Z,1.75
2022-09-12T20:26:11.470Z,1.98
2022-09-12T20:29:14.253Z,2.17
2022-09-12T20:32:18.208Z,2.45
2022-09-12T20:35:20.660Z,2.20
2022-09-12T20:38:22.727Z,2.30
2022-09-12T20:41:27.424Z,1.90
2022-09-12T20:44:30.243Z,1.95
2022-09-12T20:47:32.617Z,2.00
2022-09-12T20:50:34.708Z,2.20
2022-09-12T20:53:37.450Z,2.28
2022-09-12T20:56:39.561Z,2.30
2022-09-12T20:59:42.552Z,2.47
2022-09-12T21:02:44.703Z,2.20
2022-09-12T21:05:47.280Z,2.22
2022-09-12T21:08:50.554Z,2.30
2022-09-12T21:11:52.908Z,2.22
2022-09-12T21:14:55.120Z,1.92
2022-09-12T21:17:57.923Z,1.85
2022-09-12T21:21:00.315Z,2.20
2022-09-12T21:24:04.534Z,2.25
2022-09-12T21:27:06.853Z,2.30
2022-09-12T21:30:09.513Z,2.33
2022-09-12T21:33:11.626Z,2.15
2022-09-12T21:36:14.250Z,2.42
2022-09-12T21:39:16.291Z,2.15
2022-09-12T21:42:18.682Z,2.45
2022-09-12T21:45:20.739Z,2.35
2022-09-12T21:48:23.106Z,3.30
2022-09-12T21:51:25.344Z,2.45
2022-09-12T21:54:27.821Z,2.20
2022-09-12T21:57:29.984Z,2.45
2022-09-12T22:00:32.520Z,2.22
2022-09-12T22:03:34.898Z,2.35
2022-09-12T22:06:37.199Z,2.40
2022-09-12T22:09:39.545Z,2.40
2022-09-12T22:12:46.059Z,3.30
2022-09-12T22:15:53.063Z,2.40
2022-09-12T22:18:55.161Z,2.35
2022-09-12T22:22:16.240Z,2.50
2022-09-12T22:25:20.147Z,2.47
2022-09-12T22:28:23.146Z,2.37
2022-09-12T22:31:26.955Z,2.75
2022-09-12T22:34:29.916Z,2.40
2022-09-12T22:37:32.002Z,2.53
2022-09-12T22:40:35.012Z,2.50
2022-09-12T22:43:37.619Z,2.33
2022-09-12T22:46:40.357Z,2.42
2022-09-12T22:49:42.521Z,2.45
2022-09-12T22:52:44.878Z,2.47
2022-09-12T22:55:47.398Z,3.00
2022-09-12T22:58:50.747Z,3.03
2022-09-12T23:01:52.837Z,2.45
2022-09-12T23:04:55.194Z,2.58
2022-09-12T23:07:57.362Z,2.35
2022-09-12T23:11:01.490Z,2.80
2022-09-12T23:14:03.615Z,1.92
2022-09-12T23:17:05.959Z,2.85
2022-09-12T23:20:08.458Z,2.40
2022-09-12T23:23:10.939Z,2.80
2022-09-12T23:26:31.151Z,2.60
2022-09-12T23:29:35.233Z,2.60
2022-09-12T23:32:37.343Z,2.75
2022-09-12T23:35:39.651Z,2.65
2022-09-12T23:38:44.017Z,2.83
2022-09-12T23:41:46.399Z,2.50
2022-09-12T23:44:48.462Z,2.62
2022-09-12T23:47:50.874Z,3.00
2022-09-12T23:50:53.872Z,2.65
2022-09-12T23:53:56.421Z,3.00
2022-09-12T23:56:58.485Z,2.70
